createdAt,value
2018-10-12T00:00:45.832Z,88.40
2018-10-12T00:01:50.016Z,88.40
2018-10-12T00:02:54.123Z,88.20
2018-10-12T00:03:58.348Z,88.20
2018-10-12T00:05:02.367Z,88.20
2018-10-12T00:06:06.496Z,88.00
2018-10-12T00:07:10.907Z,87.90
2018-10-12T00:08:14.971Z,87.70
2018-10-12T00:09:19.060Z,87.80
2018-10-12T00:10:23.200Z,87.90
2018-10-12T00:11:27.417Z,87.80
2018-10-12T00:12:31.419Z,87.80
2018-10-12T00:13:35.480Z,87.70
2018-10-12T00:14:39.479Z,87.70
2018-10-12T00:15:43.736Z,87.70
2018-10-12T00:16:47.723Z,87.70
2018-10-12T00:17:51.801Z,88.10
2018-10-12T00:18:56.067Z,87.20
2018-10-12T00:20:00.131Z,87.20
2018-10-12T00:21:04.222Z,87.10
2018-10-12T00:22:08.386Z,87.20
2018-10-12T00:23:12.442Z,87.10
2018-10-12T00:24:16.435Z,87.10
2018-10-12T00:25:20.561Z,87.00
2018-10-12T00:26:25.167Z,87.00
2018-10-12T00:27:29.258Z,86.80
2018-10-12T00:28:33.247Z,86.80
2018-10-12T00:29:37.494Z,86.80
2018-10-12T00:30:41.598Z,86.80
2018-10-12T00:31:45.900Z,86.80
2018-10-12T00:32:49.932Z,86.80
2018-10-12T00:33:54.112Z,87.60
2018-10-12T00:34:58.273Z,86.80
2018-10-12T00:36:02.305Z,86.90
2018-10-12T00:37:06.741Z,87.00
2018-10-12T00:38:10.863Z,87.10
2018-10-12T00:39:15.236Z,86.80
2018-10-12T00:40:19.242Z,86.70
2018-10-12T00:41:23.279Z,86.90
2018-10-12T00:42:27.583Z,87.00
2018-10-12T00:43:31.697Z,87.00
2018-10-12T00:44:35.924Z,87.10
2018-10-12T00:45:39.968Z,87.00
2018-10-12T00:46:44.194Z,87.20
2018-10-12T00:47:52.382Z,86.80
2018-10-12T00:48:56.406Z,87.10
2018-10-12T00:50:00.379Z,87.10
2018-10-12T00:51:04.467Z,86.80
2018-10-12T00:52:08.547Z,86.60
2018-10-12T00:53:12.666Z,86.90
2018-10-12T00:54:16.636Z,86.80
2018-10-12T00:55:20.814Z,86.80
2018-10-12T00:56:24.907Z,86.80
2018-10-12T00:57:28.977Z,86.70
2018-10-12T00:58:32.967Z,86.80
2018-10-12T00:59:37.279Z,86.80
2018-10-12T01:00:41.403Z,86.80
2018-10-12T01:01:45.611Z,87.00
2018-10-12T01:02:49.651Z,87.20
2018-10-12T01:03:53.825Z,86.90
2018-10-12T01:04:57.888Z,87.10
2018-10-12T01:06:02.107Z,86.90
2018-10-12T01:07:06.175Z,86.90
2018-10-12T01:08:10.506Z,87.00
2018-10-12T01:09:14.658Z,87.00
2018-10-12T01:10:18.738Z,87.30
2018-10-12T01:11:22.719Z,87.20
2018-10-12T01:12:36.050Z,87.20
2018-10-12T01:13:40.164Z,87.20
2018-10-12T01:14:44.375Z,87.30
2018-10-12T01:15:48.391Z,87.50
2018-10-12T01:16:52.434Z,87.50
2018-10-12T01:17:56.516Z,87.60
2018-10-12T01:19:00.696Z,87.70
2018-10-12T01:20:05.450Z,87.70
2018-10-12T01:21:09.771Z,87.80
2018-10-12T01:22:13.870Z,88.00
2018-10-12T01:23:17.991Z,87.80
2018-10-12T01:24:21.956Z,88.10
2018-10-12T01:25:26.115Z,89.10
2018-10-12T01:26:30.260Z,88.40
2018-10-12T01:27:34.621Z,88.40
2018-10-12T01:28:38.699Z,88.30
2018-10-12T01:29:42.795Z,88.50
2018-10-12T01:30:46.888Z,88.90
2018-10-12T01:31:51.034Z,88.40
2018-10-12T01:33:00.472Z,88.50
2018-10-12T01:34:04.529Z,88.90
2018-10-12T01:35:08.894Z,89.00
2018-10-12T01:36:12.994Z,89.80
2018-10-12T01:37:17.471Z,89.00
2018-10-12T01:38:26.683Z,89.10
2018-10-12T01:39:30.895Z,89.50
2018-10-12T01:40:35.209Z,89.40
2018-10-12T01:41:39.403Z,89.80
2018-10-12T01:42:43.503Z,90.00
2018-10-12T01:43:47.659Z,90.00
2018-10-12T01:44:51.763Z,90.20
2018-10-12T01:45:55.988Z,90.00
2018-10-12T01:47:00.106Z,90.20
2018-10-12T01:48:04.108Z,90.40
2018-10-12T01:49:09.055Z,90.70
2018-10-12T01:50:13.127Z,90.90
2018-10-12T01:51:17.324Z,91.40
2018-10-12T01:52:21.583Z,91.40
2018-10-12T01:53:25.561Z,91.70
2018-10-12T01:54:29.510Z,92.00
2018-10-12T01:55:33.775Z,92.10
2018-10-12T01:56:37.892Z,92.30
2018-10-12T01:57:42.292Z,92.40
2018-10-12T01:58:46.232Z,92.20
2018-10-12T01:59:50.218Z,92.40
2018-10-12T02:00:54.343Z,92.50
2018-10-12T02:01:58.510Z,92.50
2018-10-12T02:03:02.805Z,92.40
2018-10-12T02:04:06.888Z,92.50
2018-10-12T02:05:11.011Z,92.20
2018-10-12T02:06:15.077Z,92.00
2018-10-12T02:07:19.234Z,91.80
2018-10-12T02:08:23.302Z,91.80
2018-10-12T02:09:27.508Z,91.70
2018-10-12T02:10:31.673Z,91.40
2018-10-12T02:11:35.647Z,91.30
2018-10-12T02:12:39.667Z,91.30
2018-10-12T02:13:43.819Z,91.20
2018-10-12T02:14:48.048Z,91.10
2018-10-12T02:15:52.110Z,91.10
2018-10-12T02:16:56.106Z,90.90
2018-10-12T02:18:01.063Z,90.80
2018-10-12T02:19:05.117Z,90.90
2018-10-12T02:20:09.763Z,90.60
2018-10-12T02:21:14.027Z,90.70
2018-10-12T02:22:18.214Z,90.60
2018-10-12T02:23:22.317Z,90.70
2018-10-12T02:24:26.350Z,90.50
2018-10-12T02:25:30.342Z,90.60
2018-10-12T02:26:34.505Z,90.50
2018-10-12T02:27:38.678Z,90.30
2018-10-12T02:28:42.855Z,90.30
2018-10-12T02:29:46.910Z,90.20
2018-10-12T02:30:50.856Z,90.20
2018-10-12T02:31:55.084Z,90.20
2018-10-12T02:32:59.356Z,90.20
2018-10-12T02:34:03.351Z,90.10
2018-10-12T02:35:07.523Z,90.10
2018-10-12T02:36:11.755Z,90.10
2018-10-12T02:37:15.904Z,90.10
2018-10-12T02:38:20.009Z,90.00
2018-10-12T02:39:24.229Z,89.90
2018-10-12T02:40:28.375Z,89.70
2018-10-12T02:41:32.594Z,89.80
2018-10-12T02:42:36.735Z,89.70
2018-10-12T02:43:40.816Z,89.70
2018-10-12T02:44:45.071Z,89.60
2018-10-12T02:45:49.223Z,89.50
2018-10-12T02:46:53.224Z,89.40
2018-10-12T02:47:57.491Z,89.50
2018-10-12T02:49:01.632Z,89.60
2018-10-12T02:50:06.438Z,89.30
2018-10-12T02:51:10.865Z,90.00
2018-10-12T02:52:15.142Z,89.70
2018-10-12T02:53:19.382Z,89.70
2018-10-12T02:54:23.462Z,89.80
2018-10-12T02:55:27.495Z,90.00
2018-10-12T02:56:31.680Z,89.80
2018-10-12T02:57:35.905Z,90.10
2018-10-12T02:58:39.935Z,90.10
2018-10-12T02:59:44.159Z,90.30
2018-10-12T03:00:48.300Z,90.10
2018-10-12T03:01:52.481Z,90.20
2018-10-12T03:02:56.581Z,90.20
2018-10-12T03:04:00.574Z,90.10
2018-10-12T03:05:04.867Z,90.10
2018-10-12T03:06:09.034Z,90.20
2018-10-12T03:07:13.275Z,90.20
2018-10-12T03:08:17.307Z,90.20
2018-10-12T03:09:21.407Z,90.20
2018-10-12T03:10:25.506Z,90.20
2018-10-12T03:11:29.677Z,90.30
2018-10-12T03:12:33.707Z,90.20
2018-10-12T03:13:37.718Z,90.20
2018-10-12T03:14:41.794Z,90.30
2018-10-12T03:15:45.945Z,90.20
2018-10-12T03:16:50.103Z,90.20
2018-10-12T03:17:54.144Z,90.40
2018-10-12T03:18:58.147Z,90.30
2018-10-12T03:20:02.259Z,90.30
2018-10-12T03:21:06.386Z,90.20
2018-10-12T03:22:10.508Z,90.30
2018-10-12T03:23:14.699Z,90.30
2018-10-12T03:24:18.737Z,90.50
2018-10-12T03:25:22.861Z,90.40
2018-10-12T03:26:27.071Z,90.40
2018-10-12T03:27:31.667Z,90.50
2018-10-12T03:28:36.711Z,90.50
2018-10-12T03:29:41.032Z,90.50
2018-10-12T03:30:50.419Z,90.70
2018-10-12T03:31:54.802Z,90.60
2018-10-12T03:32:59.147Z,90.70
2018-10-12T03:34:03.367Z,90.80
2018-10-12T03:35:07.727Z,90.80
2018-10-12T03:36:11.927Z,90.80
2018-10-12T03:37:16.158Z,90.80
2018-10-12T03:38:20.365Z,90.80
2018-10-12T03:39:24.602Z,90.80
2018-10-12T03:40:28.874Z,90.80
2018-10-12T03:41:33.018Z,90.90
2018-10-12T03:42:37.156Z,91.00
2018-10-12T03:43:41.340Z,91.00
2018-10-12T03:44:45.692Z,91.00
2018-10-12T03:45:49.832Z,91.10
2018-10-12T03:46:53.974Z,91.20
2018-10-12T03:47:58.014Z,91.10
2018-10-12T03:49:02.162Z,91.20
2018-10-12T03:50:06.423Z,91.20
2018-10-12T03:51:10.472Z,91.30
2018-10-12T03:52:14.580Z,91.20
2018-10-12T03:53:18.891Z,91.30
2018-10-12T03:54:23.094Z,91.40
2018-10-12T03:55:27.344Z,91.60
2018-10-12T03:56:31.360Z,91.80
2018-10-12T03:57:35.363Z,91.80
2018-10-12T03:58:39.559Z,91.70
2018-10-12T03:59:43.802Z,91.90
2018-10-12T04:00:47.999Z,91.90
2018-10-12T04:01:51.952Z,92.20
2018-10-12T04:02:56.092Z,92.70
2018-10-12T04:04:00.246Z,92.60
2018-10-12T04:05:04.540Z,92.90
2018-10-12T04:06:08.535Z,93.10
2018-10-12T04:07:12.617Z,93.30
2018-10-12T04:08:16.854Z,93.60
2018-10-12T04:09:20.940Z,93.80
2018-10-12T04:10:24.897Z,93.80
2018-10-12T04:11:29.151Z,93.70
2018-10-12T04:12:33.259Z,93.80
2018-10-12T04:13:38.490Z,93.60
2018-10-12T04:14:42.647Z,93.80
2018-10-12T04:15:46.889Z,93.70
2018-10-12T04:16:50.997Z,93.60
2018-10-12T04:17:54.981Z,94.00
2018-10-12T04:18:58.994Z,93.90
2018-10-12T04:20:03.022Z,93.80
2018-10-12T04:21:07.243Z,93.80
2018-10-12T04:22:11.791Z,93.90
2018-10-12T04:23:16.164Z,93.90
2018-10-12T04:24:20.155Z,93.90
2018-10-12T04:25:24.265Z,93.80
2018-10-12T04:26:28.438Z,93.90
2018-10-12T04:27:32.695Z,94.10
2018-10-12T04:28:36.846Z,94.00
2018-10-12T04:29:41.255Z,93.80
2018-10-12T04:30:45.498Z,93.80
2018-10-12T04:31:50.652Z,93.70
2018-10-12T04:32:55.286Z,93.60
2018-10-12T04:33:59.264Z,93.70
2018-10-12T04:35:03.575Z,93.50
2018-10-12T04:36:07.898Z,93.40
2018-10-12T04:37:12.029Z,93.30
2018-10-12T04:38:16.509Z,93.40
2018-10-12T04:39:40.701Z,93.40
2018-10-12T04:41:08.153Z,93.30
2018-10-12T04:42:12.428Z,93.40
2018-10-12T04:43:16.662Z,93.20
2018-10-12T04:44:20.924Z,93.20
2018-10-12T04:45:25.393Z,93.20
2018-10-12T04:46:33.400Z,93.30
2018-10-12T04:47:38.039Z,93.30
2018-10-12T04:48:43.193Z,93.50
2018-10-12T04:49:47.803Z,93.50
2018-10-12T04:50:52.367Z,93.90
2018-10-12T04:51:57.966Z,93.70
2018-10-12T04:53:03.458Z,93.80
2018-10-12T04:54:08.734Z,93.80
2018-10-12T04:55:13.040Z,93.60
2018-10-12T04:56:19.364Z,94.00
2018-10-12T04:57:23.904Z,94.00
2018-10-12T04:58:28.255Z,93.90
2018-10-12T04:59:32.666Z,94.10
2018-10-12T05:00:36.830Z,94.00
2018-10-12T05:01:41.089Z,93.80
2018-10-12T05:02:45.536Z,93.70
2018-10-12T05:03:49.889Z,93.80
2018-10-12T05:04:54.018Z,93.70
2018-10-12T05:05:58.291Z,93.70
2018-10-12T05:07:02.740Z,93.60
2018-10-12T05:08:07.187Z,93.80
2018-10-12T05:09:12.272Z,94.00
2018-10-12T05:10:16.691Z,93.60
2018-10-12T05:11:20.889Z,93.60
2018-10-12T05:12:25.243Z,93.80
2018-10-12T05:13:29.443Z,93.90
2018-10-12T05:14:33.814Z,93.90
2018-10-12T05:15:38.473Z,93.80
2018-10-12T05:16:42.686Z,93.60
2018-10-12T05:17:46.683Z,93.70
2018-10-12T05:18:50.816Z,93.70
2018-10-12T05:19:55.038Z,93.60
2018-10-12T05:20:59.994Z,93.50
2018-10-12T05:22:04.260Z,93.50
2018-10-12T05:23:08.403Z,93.50
2018-10-12T05:24:13.609Z,93.40
2018-10-12T05:25:17.819Z,93.20
2018-10-12T05:26:22.116Z,93.20
2018-10-12T05:27:26.502Z,93.20
2018-10-12T05:28:32.972Z,93.10
2018-10-12T05:29:37.257Z,93.10
2018-10-12T05:30:41.487Z,93.00
2018-10-12T05:31:45.777Z,93.00
2018-10-12T05:32:49.946Z,93.00
2018-10-12T05:33:54.031Z,92.90
2018-10-12T05:34:58.184Z,92.90
2018-10-12T05:36:02.456Z,92.90
2018-10-12T05:37:06.979Z,92.70
2018-10-12T05:38:13.332Z,92.80
2018-10-12T05:39:17.544Z,92.80
2018-10-12T05:40:24.755Z,92.70
2018-10-12T05:41:29.256Z,92.70
2018-10-12T05:42:33.667Z,92.60
2018-10-12T05:43:38.571Z,92.60
2018-10-12T05:44:42.790Z,92.60
2018-10-12T05:45:47.778Z,92.40
2018-10-12T05:46:52.165Z,92.60
2018-10-12T05:49:05.016Z,92.40
2018-10-12T05:50:10.387Z,92.40
2018-10-12T05:51:16.247Z,92.30
2018-10-12T05:52:20.909Z,92.30
2018-10-12T05:53:25.526Z,92.20
2018-10-12T05:54:29.988Z,92.30
2018-10-12T05:55:34.763Z,92.20
2018-10-12T05:56:40.251Z,92.10
2018-10-12T05:57:44.938Z,92.10
2018-10-12T05:58:49.454Z,92.10
2018-10-12T05:59:53.943Z,92.00
2018-10-12T06:00:58.381Z,91.90
2018-10-12T06:02:02.585Z,91.90
2018-10-12T06:03:07.189Z,91.80
2018-10-12T06:04:11.536Z,91.80
2018-10-12T06:05:16.072Z,91.90
2018-10-12T06:06:26.557Z,91.80
2018-10-12T06:07:31.068Z,91.80
2018-10-12T06:08:35.366Z,91.70
2018-10-12T06:09:39.564Z,91.70
2018-10-12T06:10:43.851Z,91.60
2018-10-12T06:11:48.393Z,91.70
2018-10-12T06:12:52.756Z,91.50
2018-10-12T06:13:56.931Z,91.40
2018-10-12T06:15:01.347Z,91.30
2018-10-12T06:16:05.691Z,91.40
2018-10-12T06:17:10.178Z,91.40
2018-10-12T06:18:14.893Z,91.30
2018-10-12T06:19:19.134Z,91.20
2018-10-12T06:20:23.517Z,91.20
2018-10-12T06:21:28.002Z,91.20
2018-10-12T06:22:32.083Z,91.20
2018-10-12T06:23:36.616Z,91.20
2018-10-12T06:24:41.115Z,91.30
2018-10-12T06:25:45.495Z,91.20
2018-10-12T06:26:50.128Z,91.10
2018-10-12T06:27:54.330Z,91.10
2018-10-12T06:28:58.578Z,91.10
2018-10-12T06:30:03.131Z,91.00
2018-10-12T06:31:08.660Z,91.00
2018-10-12T06:32:12.973Z,91.10
2018-10-12T06:33:17.696Z,91.20
2018-10-12T06:34:22.171Z,91.10
2018-10-12T06:35:27.071Z,91.40
2018-10-12T06:36:31.390Z,91.00
2018-10-12T06:37:36.231Z,91.10
2018-10-12T06:38:40.698Z,90.80
2018-10-12T06:39:45.005Z,90.80
2018-10-12T06:40:49.336Z,90.80
2018-10-12T06:41:53.813Z,90.90
2018-10-12T06:42:58.271Z,90.90
2018-10-12T06:44:02.746Z,90.70
2018-10-12T06:45:07.296Z,90.50
2018-10-12T06:46:11.631Z,90.50
2018-10-12T06:47:16.582Z,90.60
2018-10-12T06:48:20.947Z,90.40
2018-10-12T06:49:25.194Z,90.30
2018-10-12T06:50:29.612Z,90.20
2018-10-12T06:51:34.130Z,90.30
2018-10-12T06:52:38.478Z,90.10
2018-10-12T06:53:47.548Z,90.10
2018-10-12T06:54:55.235Z,90.00
2018-10-12T06:56:02.486Z,89.60
2018-10-12T06:57:10.834Z,89.80
2018-10-12T06:58:14.914Z,89.20
2018-10-12T06:59:19.047Z,89.10
2018-10-12T07:00:23.156Z,88.70
2018-10-12T07:01:27.337Z,88.70
2018-10-12T07:02:31.624Z,88.50
2018-10-12T07:03:35.849Z,88.50
2018-10-12T07:04:40.129Z,88.30
2018-10-12T07:05:44.317Z,87.90
2018-10-12T07:06:48.409Z,88.10
2018-10-12T07:07:52.590Z,87.90
2018-10-12T07:08:56.850Z,87.60
2018-10-12T07:10:00.982Z,87.20
2018-10-12T07:11:05.446Z,87.10
2018-10-12T07:12:09.654Z,86.80
2018-10-12T07:13:13.961Z,86.70
2018-10-12T07:14:18.095Z,86.80
2018-10-12T07:15:22.209Z,86.50
2018-10-12T07:16:26.340Z,86.30
2018-10-12T07:17:30.582Z,86.30
2018-10-12T07:18:34.725Z,86.70
2018-10-12T07:19:38.961Z,86.20
2018-10-12T07:20:43.216Z,86.00
2018-10-12T07:21:47.526Z,85.90
2018-10-12T07:22:51.531Z,85.90
2018-10-12T07:23:55.576Z,86.00
2018-10-12T07:24:59.753Z,85.40
2018-10-12T07:26:03.921Z,85.60
2018-10-12T07:27:08.196Z,85.60
2018-10-12T07:28:12.285Z,85.70
2018-10-12T07:29:16.523Z,85.30
2018-10-12T07:30:20.805Z,85.30
2018-10-12T07:31:25.261Z,84.60
2018-10-12T07:32:29.406Z,84.50
2018-10-12T07:33:33.537Z,84.20
2018-10-12T07:34:37.679Z,83.90
2018-10-12T07:35:42.760Z,83.80
2018-10-12T07:36:47.016Z,84.20
2018-10-12T07:37:51.058Z,84.00
2018-10-12T07:38:55.174Z,83.80
2018-10-12T07:39:59.266Z,84.10
2018-10-12T07:41:03.376Z,84.20
2018-10-12T07:42:08.400Z,83.90
2018-10-12T07:43:16.222Z,83.80
2018-10-12T07:44:22.139Z,83.50
2018-10-12T07:45:27.431Z,83.00
2018-10-12T07:46:31.465Z,82.60
2018-10-12T07:47:35.632Z,82.80
2018-10-12T07:48:39.672Z,82.50
2018-10-12T07:49:43.814Z,82.50
2018-10-12T07:50:47.898Z,82.10
2018-10-12T07:51:51.980Z,82.30
2018-10-12T07:52:56.146Z,82.30
2018-10-12T07:54:00.314Z,82.40
2018-10-12T07:55:04.507Z,82.40
2018-10-12T07:56:09.038Z,82.40
2018-10-12T07:57:14.406Z,82.50
2018-10-12T07:58:18.596Z,81.70
2018-10-12T07:59:22.693Z,81.40
2018-10-12T08:00:26.923Z,81.50
2018-10-12T08:01:30.954Z,81.70
2018-10-12T08:02:35.093Z,81.90
2018-10-12T08:03:39.273Z,82.20
2018-10-12T08:04:43.654Z,81.30
2018-10-12T08:05:47.776Z,81.10
2018-10-12T08:06:52.088Z,81.90
2018-10-12T08:07:56.186Z,81.00
2018-10-12T08:09:00.287Z,80.60
2018-10-12T08:10:04.529Z,80.40
2018-10-12T08:11:08.849Z,81.00
2018-10-12T08:12:12.815Z,80.90
2018-10-12T08:13:16.854Z,81.40
2018-10-12T08:14:21.096Z,80.70
2018-10-12T08:21:05.126Z,80.70
2018-10-12T08:22:09.281Z,79.70
2018-10-12T08:23:13.495Z,79.70
2018-10-12T08:24:17.643Z,79.00
2018-10-12T08:25:21.776Z,79.40
2018-10-12T08:26:32.384Z,79.70
2018-10-12T08:27:36.513Z,78.80
2018-10-12T08:28:40.639Z,78.80
2018-10-12T08:29:47.631Z,78.40
2018-10-12T08:30:51.754Z,78.40
2018-10-12T08:31:56.039Z,79.00
2018-10-12T08:33:00.255Z,78.90
2018-10-12T08:34:04.334Z,78.70
2018-10-12T08:35:08.487Z,78.90
2018-10-12T08:36:12.600Z,79.30
2018-10-12T08:37:16.772Z,78.30
2018-10-12T08:38:20.963Z,78.80
2018-10-12T08:39:25.068Z,78.70
2018-10-12T08:40:29.224Z,78.50
2018-10-12T08:41:33.270Z,78.10
2018-10-12T08:42:37.581Z,77.40
2018-10-12T08:43:41.646Z,77.50
2018-10-12T08:44:45.687Z,77.90
2018-10-12T08:45:49.746Z,77.70
2018-10-12T08:46:53.827Z,77.10
2018-10-12T08:47:58.182Z,77.00
2018-10-12T08:49:02.590Z,77.30
2018-10-12T08:50:06.789Z,78.00
2018-10-12T08:51:10.856Z,77.60
2018-10-12T08:52:15.178Z,77.30
2018-10-12T08:53:19.282Z,77.20
2018-10-12T08:54:23.501Z,76.90
2018-10-12T08:55:27.826Z,76.40
2018-10-12T08:56:32.717Z,75.70
2018-10-12T08:57:37.102Z,76.80
2018-10-12T08:58:41.271Z,77.50
2018-10-12T08:59:45.340Z,76.20
2018-10-12T09:00:49.453Z,77.10
2018-10-12T09:01:53.558Z,75.90
2018-10-12T09:02:57.765Z,75.20
2018-10-12T09:04:02.936Z,75.60
2018-10-12T09:05:07.681Z,75.40
2018-10-12T09:06:12.960Z,76.20
2018-10-12T09:07:17.042Z,76.40
2018-10-12T09:08:21.156Z,75.30
2018-10-12T09:09:25.952Z,74.70
2018-10-12T09:10:30.548Z,74.70
2018-10-12T09:11:34.653Z,74.30
2018-10-12T09:12:39.098Z,75.40
2018-10-12T09:13:43.496Z,75.10
2018-10-12T09:14:47.558Z,75.00
2018-10-12T09:15:51.703Z,74.80
2018-10-12T09:16:55.782Z,74.80
2018-10-12T09:18:00.076Z,75.40
2018-10-12T09:19:06.271Z,76.00
2018-10-12T09:20:14.643Z,75.20
2018-10-12T09:21:18.757Z,75.50
2018-10-12T09:22:23.258Z,74.80
2018-10-12T09:23:27.418Z,76.10
2018-10-12T09:24:31.644Z,75.20
2018-10-12T09:25:35.749Z,74.80
2018-10-12T09:26:39.890Z,74.30
2018-10-12T09:27:44.528Z,75.10
2018-10-12T09:28:48.772Z,74.40
2018-10-12T09:29:52.890Z,73.40
2018-10-12T09:30:57.067Z,73.50
2018-10-12T09:32:01.117Z,74.90
2018-10-12T09:33:05.309Z,73.10
2018-10-12T09:34:10.062Z,73.50
2018-10-12T09:35:14.300Z,71.90
2018-10-12T09:36:18.462Z,71.20
2018-10-12T09:37:22.429Z,71.60
2018-10-12T09:38:29.366Z,70.70
2018-10-12T09:39:34.654Z,71.40
2018-10-12T09:40:40.164Z,71.90
2018-10-12T09:41:45.149Z,71.80
2018-10-12T09:42:49.332Z,70.20
2018-10-12T09:43:53.441Z,69.40
2018-10-12T09:44:57.663Z,69.50
2018-10-12T09:46:01.927Z,70.00
2018-10-12T09:47:06.120Z,68.90
2018-10-12T09:48:10.546Z,69.70
2018-10-12T09:49:14.817Z,69.50
2018-10-12T09:50:19.003Z,69.40
2018-10-12T09:51:23.638Z,69.60
2018-10-12T09:52:27.841Z,68.90
2018-10-12T09:53:32.045Z,68.20
2018-10-12T09:54:37.473Z,67.40
2018-10-12T09:55:42.214Z,67.40
2018-10-12T09:56:51.600Z,67.40
2018-10-12T09:57:57.008Z,67.60
2018-10-12T09:59:01.166Z,69.20
2018-10-12T10:00:13.369Z,68.40
2018-10-12T10:01:22.693Z,69.00
2018-10-12T10:02:32.164Z,68.90
2018-10-12T10:03:41.527Z,67.50
2018-10-12T10:04:45.950Z,67.60
2018-10-12T10:05:50.371Z,67.80
2018-10-12T10:06:55.114Z,67.30
2018-10-12T10:07:59.517Z,68.20
2018-10-12T10:09:05.848Z,67.80
2018-10-12T10:10:10.015Z,68.50
2018-10-12T10:11:14.095Z,68.40
2018-10-12T10:12:18.466Z,68.40
2018-10-12T10:13:23.017Z,68.20
2018-10-12T10:14:27.385Z,68.00
2018-10-12T10:15:31.704Z,67.70
2018-10-12T10:16:35.997Z,67.40
2018-10-12T10:17:40.249Z,68.30
2018-10-12T10:18:44.491Z,68.80
2018-10-12T10:19:48.650Z,68.00
2018-10-12T10:20:52.775Z,68.70
2018-10-12T10:21:56.929Z,67.30
2018-10-12T10:23:01.542Z,67.80
2018-10-12T10:24:06.108Z,67.60
2018-10-12T10:25:10.635Z,68.20
2018-10-12T10:26:14.729Z,68.60
2018-10-12T10:27:18.972Z,68.80
2018-10-12T10:28:23.130Z,69.10
2018-10-12T10:29:27.748Z,68.30
2018-10-12T10:30:31.970Z,67.70
2018-10-12T10:31:36.879Z,68.20
2018-10-12T10:32:41.139Z,68.00
2018-10-12T10:33:45.625Z,68.80
2018-10-12T10:34:54.579Z,68.50
2018-10-12T10:35:58.815Z,68.40
2018-10-12T10:37:02.919Z,68.60
2018-10-12T10:38:07.267Z,68.60
2018-10-12T10:39:12.555Z,68.50
2018-10-12T10:40:16.964Z,68.80
2018-10-12T10:41:21.167Z,68.60
2018-10-12T10:42:25.431Z,68.40
2018-10-12T10:43:29.715Z,68.20
2018-10-12T10:44:34.095Z,67.90
2018-10-12T10:45:38.650Z,67.30
2018-10-12T10:46:42.844Z,67.30
2018-10-12T10:47:47.176Z,66.20
2018-10-12T10:48:51.280Z,66.60
2018-10-12T10:49:55.413Z,65.50
2018-10-12T10:50:59.748Z,65.20
2018-10-12T10:52:04.542Z,65.30
2018-10-12T10:53:08.750Z,65.10
2018-10-12T10:54:12.970Z,65.40
2018-10-12T10:55:17.222Z,65.50
2018-10-12T10:56:21.650Z,65.10
2018-10-12T10:57:25.920Z,64.70
2018-10-12T10:58:30.428Z,65.20
2018-10-12T10:59:36.692Z,65.60
2018-10-12T11:00:41.287Z,65.10
2018-10-12T11:01:45.531Z,64.60
2018-10-12T11:02:49.831Z,64.20
2018-10-12T11:03:54.006Z,62.80
2018-10-12T11:04:58.378Z,62.60
2018-10-12T11:06:03.322Z,61.80
2018-10-12T11:07:07.675Z,61.50
2018-10-12T11:08:11.931Z,60.90
2018-10-12T11:09:16.194Z,59.80
2018-10-12T11:10:21.463Z,57.70
2018-10-12T11:11:25.678Z,57.00
2018-10-12T11:12:36.870Z,56.90
2018-10-12T11:13:41.215Z,54.70
2018-10-12T11:14:46.087Z,54.00
2018-10-12T11:15:50.299Z,54.20
2018-10-12T11:16:54.559Z,53.20
2018-10-12T11:17:58.887Z,53.90
2018-10-12T11:19:03.979Z,53.10
2018-10-12T11:20:08.293Z,52.30
2018-10-12T11:21:12.523Z,50.90
2018-10-12T11:22:19.407Z,49.00
2018-10-12T11:23:26.757Z,48.40
2018-10-12T11:24:30.959Z,46.70
2018-10-12T11:25:35.108Z,46.10
2018-10-12T11:26:41.738Z,45.80
2018-10-12T11:27:45.969Z,45.20
2018-10-12T11:28:50.362Z,44.70
2018-10-12T11:29:54.557Z,44.60
2018-10-12T11:30:58.766Z,44.20
2018-10-12T11:32:02.805Z,43.10
2018-10-12T11:33:07.217Z,42.00
2018-10-12T11:34:11.298Z,41.90
2018-10-12T11:35:15.493Z,40.60
2018-10-12T11:36:19.603Z,40.00
2018-10-12T11:37:24.248Z,39.60
2018-10-12T11:38:28.546Z,41.20
2018-10-12T11:39:32.639Z,41.50
2018-10-12T11:40:37.752Z,41.30
2018-10-12T11:41:41.829Z,41.10
2018-10-12T11:42:56.881Z,40.50
2018-10-12T11:44:02.481Z,40.70
2018-10-12T11:45:06.661Z,39.30
2018-10-12T11:46:14.545Z,39.40
2018-10-12T11:47:18.879Z,38.60
2018-10-12T11:48:23.565Z,39.10
2018-10-12T11:49:27.689Z,39.40
2018-10-12T11:50:31.800Z,39.20
2018-10-12T11:51:36.651Z,38.20
2018-10-12T11:52:41.414Z,38.90
2018-10-12T11:53:45.471Z,39.40
2018-10-12T11:54:50.490Z,39.60
2018-10-12T11:55:56.738Z,40.30
2018-10-12T11:57:02.438Z,40.00
2018-10-12T11:58:06.698Z,40.00
2018-10-12T11:59:10.740Z,40.50
2018-10-12T12:00:21.023Z,41.80
2018-10-12T12:01:24.989Z,43.00
2018-10-12T12:02:29.036Z,43.60
2018-10-12T12:03:33.027Z,44.30
2018-10-12T12:04:37.480Z,44.90
2018-10-12T12:05:41.514Z,46.70
2018-10-12T12:06:45.577Z,47.20
2018-10-12T12:07:49.814Z,47.80
2018-10-12T12:08:53.914Z,48.00
2018-10-12T12:09:57.996Z,48.60
2018-10-12T12:11:02.057Z,48.60
2018-10-12T12:12:06.195Z,48.40
2018-10-12T12:13:10.337Z,48.30
2018-10-12T12:14:14.414Z,48.00
2018-10-12T12:15:18.487Z,48.60
2018-10-12T12:16:22.536Z,48.00
2018-10-12T12:17:26.681Z,48.70
2018-10-12T12:18:34.675Z,48.70
2018-10-12T12:19:38.749Z,48.20
2018-10-12T12:20:42.843Z,48.20
2018-10-12T12:21:47.076Z,48.50
2018-10-12T12:22:51.165Z,48.10
2018-10-12T12:23:55.351Z,48.60
2018-10-12T12:24:59.436Z,49.20
2018-10-12T12:26:05.317Z,50.20
2018-10-12T12:27:09.578Z,51.70
2018-10-12T12:28:13.760Z,51.90
2018-10-12T12:29:18.140Z,52.90
2018-10-12T12:30:22.653Z,53.60
2018-10-12T12:31:26.766Z,54.30
2018-10-12T12:32:30.932Z,55.00
2018-10-12T12:33:35.128Z,55.60
2018-10-12T12:34:39.471Z,55.80
2018-10-12T12:35:44.009Z,56.60
2018-10-12T12:36:47.807Z,57.10
2018-10-12T12:37:51.986Z,57.20
2018-10-12T12:38:57.786Z,57.40
2018-10-12T12:40:01.935Z,57.40
2018-10-12T12:41:06.171Z,57.90
2018-10-12T12:42:10.205Z,58.50
2018-10-12T12:43:14.328Z,57.80
2018-10-12T12:44:19.915Z,57.70
2018-10-12T12:45:24.338Z,57.40
2018-10-12T12:46:28.400Z,57.50
2018-10-12T12:47:32.598Z,57.00
2018-10-12T12:48:36.968Z,57.60
2018-10-12T12:49:40.741Z,57.00
2018-10-12T12:50:44.863Z,56.60
2018-10-12T12:51:51.412Z,56.20
2018-10-12T12:52:56.284Z,55.90
2018-10-12T12:54:03.199Z,55.70
2018-10-12T12:55:07.319Z,55.80
2018-10-12T12:56:12.093Z,54.60
2018-10-12T12:57:16.809Z,54.40
2018-10-12T12:58:20.806Z,53.70
2018-10-12T12:59:26.671Z,53.70
2018-10-12T13:00:30.862Z,52.60
2018-10-12T13:01:34.924Z,52.90
2018-10-12T13:02:39.026Z,52.00
2018-10-12T13:03:43.169Z,52.40
2018-10-12T13:04:47.374Z,52.80
2018-10-12T13:05:51.408Z,52.30
2018-10-12T13:06:55.546Z,52.50
2018-10-12T13:08:00.519Z,53.20
2018-10-12T13:09:07.139Z,53.60
2018-10-12T13:10:11.280Z,54.00
2018-10-12T13:11:15.509Z,54.50
2018-10-12T13:12:19.821Z,55.40
2018-10-12T13:13:24.070Z,55.80
2018-10-12T13:14:28.264Z,56.60
2018-10-12T13:15:32.643Z,56.80
2018-10-12T13:16:36.863Z,57.50
2018-10-12T13:17:41.165Z,57.40
2018-10-12T13:18:45.247Z,58.10
2018-10-12T13:19:49.311Z,58.40
2018-10-12T13:20:53.411Z,59.10
2018-10-12T13:21:57.650Z,59.10
2018-10-12T13:23:03.713Z,59.50
2018-10-12T13:24:08.608Z,59.10
2018-10-12T13:25:12.787Z,59.20
2018-10-12T13:26:17.009Z,59.40
2018-10-12T13:27:21.043Z,59.90
2018-10-12T13:28:25.356Z,59.60
2018-10-12T13:29:29.411Z,59.60
2018-10-12T13:30:33.660Z,60.10
2018-10-12T13:31:37.802Z,60.20
2018-10-12T13:32:42.082Z,60.20
2018-10-12T13:33:46.738Z,60.40
2018-10-12T13:34:50.860Z,60.20
2018-10-12T13:35:55.145Z,60.10
2018-10-12T13:36:59.315Z,60.10
2018-10-12T13:38:03.594Z,60.30
2018-10-12T13:39:10.211Z,60.60
2018-10-12T13:40:14.372Z,60.80
2018-10-12T13:41:19.122Z,61.80
2018-10-12T13:42:23.271Z,61.00
2018-10-12T13:43:33.243Z,61.70
2018-10-12T13:44:37.860Z,62.10
2018-10-12T13:45:42.033Z,62.10
2018-10-12T13:46:46.988Z,62.40
2018-10-12T13:47:51.079Z,62.20
2018-10-12T13:48:55.289Z,62.20
2018-10-12T13:50:00.515Z,62.20
2018-10-12T13:51:05.415Z,61.80
2018-10-12T13:52:09.694Z,62.00
2018-10-12T13:53:13.778Z,62.00
2018-10-12T13:54:22.556Z,62.00
2018-10-12T13:55:27.484Z,62.00
2018-10-12T13:56:31.644Z,62.00
2018-10-12T13:57:35.809Z,62.30
2018-10-12T13:58:41.030Z,63.50